Mreta, Georgia
Current Conditions -  °F | °C
As of 7:47 PM on Thursday 27 Nov 2014 (Local Time) from KRYY Reporting Station
Overcast Overcast  
Wind Chill: 31°   Ceiling: 4100
Heat Index: 37°   Visibility: 10mi
Dew Point: 23°   Wind: 9mph
Humidity: 56%   Direction: 330°NNW
Pressure: 30.38"   Gusts: 17mph
Location:  34.0465°N, 84.443°W
Report Text: KRYY 280047Z 33008G15KT 10SM OVC041 03/M05 A3038
Loading
Personal Weather Stations






























Interactive Weather Map New forecast layout! Learn more

10-Day Weather Forecast

Advertisements
Track Severe Weather on mobile